sensor_id;sensor_type;location;lat;lon;timestamp;pressure;altitude;pressure_sealevel;temperature
49154;BMP280;49455;52.252;9.124;2023-06-10T00:04:44;99745.22;;;18.52
49154;BMP280;49455;52.252;9.124;2023-06-10T00:09:44;99735.19;;;18.49
49154;BMP280;49455;52.252;9.124;2023-06-10T00:14:45;99736.91;;;18.37
49154;BMP280;49455;52.252;9.124;2023-06-10T00:19:45;99728.53;;;18.31
49154;BMP280;49455;52.252;9.124;2023-06-10T00:24:45;99728.25;;;18.29
49154;BMP280;49455;52.252;9.124;2023-06-10T00:29:46;99723.38;;;18.24
49154;BMP280;49455;52.252;9.124;2023-06-10T00:34:46;99723.09;;;18.13
49154;BMP280;49455;52.252;9.124;2023-06-10T00:39:46;99725.69;;;18.08
49154;BMP280;49455;52.252;9.124;2023-06-10T00:44:47;99718.72;;;17.88
49154;BMP280;49455;52.252;9.124;2023-06-10T00:49:49;99723.19;;;17.76
49154;BMP280;49455;52.252;9.124;2023-06-10T00:54:49;99737.63;;;17.59
49154;BMP280;49455;52.252;9.124;2023-06-10T00:59:51;99726.84;;;17.27
49154;BMP280;49455;52.252;9.124;2023-06-10T01:04:51;99716.34;;;17.26
49154;BMP280;49455;52.252;9.124;2023-06-10T01:10:01;99719.69;;;17.21
49154;BMP280;49455;52.252;9.124;2023-06-10T01:15:02;99730.13;;;17.22
49154;BMP280;49455;52.252;9.124;2023-06-10T01:20:03;99739.19;;;16.82
49154;BMP280;49455;52.252;9.124;2023-06-10T01:25:04;99732.94;;;16.82
49154;BMP280;49455;52.252;9.124;2023-06-10T01:30:08;99727.09;;;16.62
49154;BMP280;49455;52.252;9.124;2023-06-10T01:35:15;99727.16;;;16.40
49154;BMP280;49455;52.252;9.124;2023-06-10T01:40:16;99726.06;;;16.37
49154;BMP280;49455;52.252;9.124;2023-06-10T01:45:16;99731.81;;;16.30
49154;BMP280;49455;52.252;9.124;2023-06-10T01:50:17;99735.38;;;16.18
49154;BMP280;49455;52.252;9.124;2023-06-10T01:55:17;99735.47;;;16.05
49154;BMP280;49455;52.252;9.124;2023-06-10T02:00:18;99741.63;;;15.96
49154;BMP280;49455;52.252;9.124;2023-06-10T02:05:19;99749.56;;;15.69
49154;BMP280;49455;52.252;9.124;2023-06-10T02:10:19;99754.19;;;15.72
49154;BMP280;49455;52.252;9.124;2023-06-10T02:15:20;99765.03;;;15.63
49154;BMP280;49455;52.252;9.124;2023-06-10T02:20:21;99758.69;;;15.66
49154;BMP280;49455;52.252;9.124;2023-06-10T02:25:21;99755.13;;;15.56
49154;BMP280;49455;52.252;9.124;2023-06-10T02:30:21;99761.44;;;15.40
49154;BMP280;49455;52.252;9.124;2023-06-10T02:35:22;99765.00;;;15.02
49154;BMP280;49455;52.252;9.124;2023-06-10T02:40:24;99761.59;;;14.85
49154;BMP280;49455;52.252;9.124;2023-06-10T02:45:25;99770.75;;;14.79
49154;BMP280;49455;52.252;9.124;2023-06-10T02:50:26;99763.47;;;14.63
49154;BMP280;49455;52.252;9.124;2023-06-10T02:55:35;99771.09;;;14.55
49154;BMP280;49455;52.252;9.124;2023-06-10T03:00:38;99767.72;;;14.35
49154;BMP280;49455;52.252;9.124;2023-06-10T03:05:39;99769.63;;;14.38
49154;BMP280;49455;52.252;9.124;2023-06-10T03:10:40;99768.63;;;14.32
49154;BMP280;49455;52.252;9.124;2023-06-10T03:15:43;99772.75;;;14.36
49154;BMP280;49455;52.252;9.124;2023-06-10T03:20:47;99782.91;;;14.36
49154;BMP280;49455;52.252;9.124;2023-06-10T03:25:48;99776.44;;;14.30
49154;BMP280;49455;52.252;9.124;2023-06-10T03:30:52;99781.91;;;14.30
49154;BMP280;49455;52.252;9.124;2023-06-10T03:35:53;99776.38;;;14.33
49154;BMP280;49455;52.252;9.124;2023-06-10T03:40:54;99779.16;;;14.30
49154;BMP280;49455;52.252;9.124;2023-06-10T03:45:55;99794.34;;;14.31
49154;BMP280;49455;52.252;9.124;2023-06-10T03:50:55;99786.81;;;14.35
49154;BMP280;49455;52.252;9.124;2023-06-10T03:55:56;99788.44;;;14.32
49154;BMP280;49455;52.252;9.124;2023-06-10T04:00:58;99792.34;;;14.60
49154;BMP280;49455;52.252;9.124;2023-06-10T04:06:06;99795.44;;;14.75
49154;BMP280;49455;52.252;9.124;2023-06-10T04:11:07;99802.75;;;14.91
49154;BMP280;49455;52.252;9.124;2023-06-10T04:16:07;99806.81;;;16.07
49154;BMP280;49455;52.252;9.124;2023-06-10T04:21:08;99787.00;;;16.69
49154;BMP280;49455;52.252;9.124;2023-06-10T04:26:08;99794.69;;;15.26
49154;BMP280;49455;52.252;9.124;2023-06-10T04:31:09;99788.13;;;15.23
49154;BMP280;49455;52.252;9.124;2023-06-10T04:36:09;99776.47;;;15.10
49154;BMP280;49455;52.252;9.124;2023-06-10T04:41:10;99786.84;;;15.15
49154;BMP280;49455;52.252;9.124;2023-06-10T04:46:11;99794.81;;;15.22
49154;BMP280;49455;52.252;9.124;2023-06-10T04:51:12;99798.25;;;15.23
49154;BMP280;49455;52.252;9.124;2023-06-10T04:56:12;99797.63;;;15.06
49154;BMP280;49455;52.252;9.124;2023-06-10T05:01:13;99800.44;;;14.77
49154;BMP280;49455;52.252;9.124;2023-06-10T05:06:16;99799.47;;;14.96
49154;BMP280;49455;52.252;9.124;2023-06-10T05:11:17;99804.19;;;15.08
49154;BMP280;49455;52.252;9.124;2023-06-10T05:16:17;99799.81;;;15.36
49154;BMP280;49455;52.252;9.124;2023-06-10T05:21:18;99802.94;;;15.48
49154;BMP280;49455;52.252;9.124;2023-06-10T05:26:18;99807.34;;;15.45
49154;BMP280;49455;52.252;9.124;2023-06-10T05:31:19;99815.06;;;15.47
49154;BMP280;49455;52.252;9.124;2023-06-10T05:36:19;99814.84;;;15.41
49154;BMP280;49455;52.252;9.124;2023-06-10T05:41:19;99821.28;;;15.60
49154;BMP280;49455;52.252;9.124;2023-06-10T05:46:20;99821.06;;;15.54
49154;BMP280;49455;52.252;9.124;2023-06-10T05:51:21;99816.44;;;15.77
49154;BMP280;49455;52.252;9.124;2023-06-10T05:56:21;99814.38;;;16.03
49154;BMP280;49455;52.252;9.124;2023-06-10T06:01:22;99814.41;;;16.25
49154;BMP280;49455;52.252;9.124;2023-06-10T06:06:22;99809.88;;;16.31
49154;BMP280;49455;52.252;9.124;2023-06-10T06:11:23;99808.09;;;16.37
49154;BMP280;49455;52.252;9.124;2023-06-10T06:16:23;99809.84;;;16.75
49154;BMP280;49455;52.252;9.124;2023-06-10T06:21:24;99798.69;;;16.60
49154;BMP280;49455;52.252;9.124;2023-06-10T06:26:24;99801.50;;;16.88
49154;BMP280;49455;52.252;9.124;2023-06-10T06:31:24;99801.16;;;17.07
49154;BMP280;49455;52.252;9.124;2023-06-10T06:36:25;99803.59;;;17.15
49154;BMP280;49455;52.252;9.124;2023-06-10T06:41:28;99802.72;;;17.27
49154;BMP280;49455;52.252;9.124;2023-06-10T06:46:29;99805.66;;;17.60
49154;BMP280;49455;52.252;9.124;2023-06-10T06:51:29;99802.00;;;17.63
49154;BMP280;49455;52.252;9.124;2023-06-10T06:56:30;99811.63;;;17.77
49154;BMP280;49455;52.252;9.124;2023-06-10T07:01:33;99807.66;;;18.05
49154;BMP280;49455;52.252;9.124;2023-06-10T07:06:33;99799.41;;;18.24
49154;BMP280;49455;52.252;9.124;2023-06-10T07:11:34;99819.91;;;18.47
49154;BMP280;49455;52.252;9.124;2023-06-10T07:16:34;99833.31;;;18.54
49154;BMP280;49455;52.252;9.124;2023-06-10T07:21:35;99830.97;;;19.04
49154;BMP280;49455;52.252;9.124;2023-06-10T07:26:35;99823.28;;;19.17
49154;BMP280;49455;52.252;9.124;2023-06-10T07:31:35;99830.13;;;19.22
49154;BMP280;49455;52.252;9.124;2023-06-10T07:36:36;99834.09;;;19.45
49154;BMP280;49455;52.252;9.124;2023-06-10T07:41:57;99833.09;;;19.57
49154;BMP280;49455;52.252;9.124;2023-06-10T07:46:59;99836.25;;;19.65
49154;BMP280;49455;52.252;9.124;2023-06-10T07:52:00;99836.31;;;20.09
49154;BMP280;49455;52.252;9.124;2023-06-10T07:57:00;99833.28;;;20.37
49154;BMP280;49455;52.252;9.124;2023-06-10T08:02:01;99831.03;;;20.20
49154;BMP280;49455;52.252;9.124;2023-06-10T08:07:01;99834.69;;;20.76
49154;BMP280;49455;52.252;9.124;2023-06-10T08:12:02;99843.13;;;20.73
49154;BMP280;49455;52.252;9.124;2023-06-10T08:17:04;99840.97;;;20.97
49154;BMP280;49455;52.252;9.124;2023-06-10T08:22:04;99836.72;;;20.96
49154;BMP280;49455;52.252;9.124;2023-06-10T08:27:05;99840.81;;;21.06
49154;BMP280;49455;52.252;9.124;2023-06-10T08:32:06;99842.03;;;21.41
49154;BMP280;49455;52.252;9.124;2023-06-10T08:37:06;99835.38;;;21.73
49154;BMP280;49455;52.252;9.124;2023-06-10T08:42:39;99851.56;;;21.86
49154;BMP280;49455;52.252;9.124;2023-06-10T08:47:42;99841.16;;;22.27
49154;BMP280;49455;52.252;9.124;2023-06-10T08:52:48;99840.41;;;22.58
49154;BMP280;49455;52.252;9.124;2023-06-10T08:57:49;99848.22;;;22.66
49154;BMP280;49455;52.252;9.124;2023-06-10T09:02:50;99832.19;;;23.35
49154;BMP280;49455;52.252;9.124;2023-06-10T09:07:52;99843.03;;;23.50
49154;BMP280;49455;52.252;9.124;2023-06-10T09:12:52;99842.09;;;23.64
49154;BMP280;49455;52.252;9.124;2023-06-10T09:17:53;99846.16;;;24.02
49154;BMP280;49455;52.252;9.124;2023-06-10T09:22:56;99841.41;;;23.97
49154;BMP280;49455;52.252;9.124;2023-06-10T09:27:57;99838.88;;;24.10
49154;BMP280;49455;52.252;9.124;2023-06-10T09:33:02;99837.59;;;24.28
49154;BMP280;49455;52.252;9.124;2023-06-10T09:38:03;99839.63;;;24.28
49154;BMP280;49455;52.252;9.124;2023-06-10T09:43:04;99837.59;;;24.28
49154;BMP280;49455;52.252;9.124;2023-06-10T09:48:05;99833.06;;;24.19
49154;BMP280;49455;52.252;9.124;2023-06-10T09:53:06;99821.66;;;24.68
49154;BMP280;49455;52.252;9.124;2023-06-10T09:58:07;99824.09;;;24.88
49154;BMP280;49455;52.252;9.124;2023-06-10T10:03:07;99818.97;;;25.15
49154;BMP280;49455;52.252;9.124;2023-06-10T10:08:07;99817.97;;;25.53
49154;BMP280;49455;52.252;9.124;2023-06-10T10:13:08;99816.66;;;25.24
49154;BMP280;49455;52.252;9.124;2023-06-10T10:18:14;99821.16;;;25.69
49154;BMP280;49455;52.252;9.124;2023-06-10T10:23:23;99819.56;;;25.73
49154;BMP280;49455;52.252;9.124;2023-06-10T10:28:29;99818.25;;;25.86
49154;BMP280;49455;52.252;9.124;2023-06-10T10:38:43;99824.03;;;26.61
49154;BMP280;49455;52.252;9.124;2023-06-10T10:43:46;99822.31;;;27.01
49154;BMP280;49455;52.252;9.124;2023-06-10T10:48:52;99824.38;;;27.14
49154;BMP280;49455;52.252;9.124;2023-06-10T10:54:14;99831.53;;;27.28
49154;BMP280;49455;52.252;9.124;2023-06-10T10:59:15;99826.50;;;26.89
49154;BMP280;49455;52.252;9.124;2023-06-10T11:04:17;99832.41;;;26.80
49154;BMP280;49455;52.252;9.124;2023-06-10T11:09:28;99833.22;;;26.56
49154;BMP280;49455;52.252;9.124;2023-06-10T11:14:29;99830.81;;;27.60
49154;BMP280;49455;52.252;9.124;2023-06-10T11:19:34;99820.25;;;27.21
49154;BMP280;49455;52.252;9.124;2023-06-10T11:24:34;99815.19;;;28.28
49154;BMP280;49455;52.252;9.124;2023-06-10T11:29:35;99823.38;;;27.49
49154;BMP280;49455;52.252;9.124;2023-06-10T11:34:35;99817.41;;;28.04
49154;BMP280;49455;52.252;9.124;2023-06-10T11:39:36;99825.31;;;28.26
49154;BMP280;49455;52.252;9.124;2023-06-10T11:44:36;99821.13;;;28.72
49154;BMP280;49455;52.252;9.124;2023-06-10T11:49:36;99828.16;;;28.86
49154;BMP280;49455;52.252;9.124;2023-06-10T11:54:38;99813.53;;;28.94
49154;BMP280;49455;52.252;9.124;2023-06-10T11:59:38;99812.50;;;29.59
49154;BMP280;49455;52.252;9.124;2023-06-10T12:04:39;99815.63;;;29.14
49154;BMP280;49455;52.252;9.124;2023-06-10T12:09:39;99809.88;;;29.54
49154;BMP280;49455;52.252;9.124;2023-06-10T12:14:56;99812.44;;;30.01
49154;BMP280;49455;52.252;9.124;2023-06-10T12:19:58;99807.31;;;30.13
49154;BMP280;49455;52.252;9.124;2023-06-10T12:25:00;99802.19;;;30.40
49154;BMP280;49455;52.252;9.124;2023-06-10T12:30:02;99799.44;;;29.54
49154;BMP280;49455;52.252;9.124;2023-06-10T12:35:03;99788.22;;;29.47
49154;BMP280;49455;52.252;9.124;2023-06-10T12:40:05;99796.16;;;29.84
49154;BMP280;49455;52.252;9.124;2023-06-10T12:45:06;99782.66;;;30.04
49154;BMP280;49455;52.252;9.124;2023-06-10T12:50:07;99789.53;;;30.03
49154;BMP280;49455;52.252;9.124;2023-06-10T12:55:08;99773.03;;;30.71
49154;BMP280;49455;52.252;9.124;2023-06-10T13:00:09;99774.75;;;30.97
49154;BMP280;49455;52.252;9.124;2023-06-10T13:05:09;99781.53;;;29.99
49154;BMP280;49455;52.252;9.124;2023-06-10T13:10:10;99773.53;;;30.39
49154;BMP280;49455;52.252;9.124;2023-06-10T13:15:10;99771.72;;;30.65
49154;BMP280;49455;52.252;9.124;2023-06-10T13:20:11;99776.56;;;30.20
49154;BMP280;49455;52.252;9.124;2023-06-10T13:25:11;99770.91;;;30.41
49154;BMP280;49455;52.252;9.124;2023-06-10T13:30:12;99773.94;;;30.51
49154;BMP280;49455;52.252;9.124;2023-06-10T13:35:12;99757.81;;;30.36
49154;BMP280;49455;52.252;9.124;2023-06-10T13:40:13;99747.25;;;30.42
49154;BMP280;49455;52.252;9.124;2023-06-10T13:45:13;99742.41;;;30.58
49154;BMP280;49455;52.252;9.124;2023-06-10T13:50:14;99743.16;;;30.51
49154;BMP280;49455;52.252;9.124;2023-06-10T13:55:15;99737.38;;;30.05
49154;BMP280;49455;52.252;9.124;2023-06-10T14:00:16;99739.56;;;30.27
49154;BMP280;49455;52.252;9.124;2023-06-10T14:05:16;99731.41;;;30.01
49154;BMP280;49455;52.252;9.124;2023-06-10T14:10:17;99726.00;;;30.54
49154;BMP280;49455;52.252;9.124;2023-06-10T14:15:17;99723.25;;;31.08
49154;BMP280;49455;52.252;9.124;2023-06-10T14:20:17;99730.78;;;30.31
49154;BMP280;49455;52.252;9.124;2023-06-10T14:25:18;99735.34;;;30.65
49154;BMP280;49455;52.252;9.124;2023-06-10T14:30:18;99730.38;;;30.94
49154;BMP280;49455;52.252;9.124;2023-06-10T14:35:19;99713.75;;;30.73
49154;BMP280;49455;52.252;9.124;2023-06-10T14:40:20;99719.91;;;30.87
49154;BMP280;49455;52.252;9.124;2023-06-10T14:45:21;99717.09;;;31.40
49154;BMP280;49455;52.252;9.124;2023-06-10T14:50:21;99710.28;;;31.74
49154;BMP280;49455;52.252;9.124;2023-06-10T14:55:22;99711.88;;;30.83
49154;BMP280;49455;52.252;9.124;2023-06-10T15:00:22;99720.47;;;31.00
49154;BMP280;49455;52.252;9.124;2023-06-10T15:05:22;99713.94;;;30.90
49154;BMP280;49455;52.252;9.124;2023-06-10T15:10:23;99712.59;;;31.52
49154;BMP280;49455;52.252;9.124;2023-06-10T15:15:24;99701.22;;;31.27
49154;BMP280;49455;52.252;9.124;2023-06-10T15:20:24;99709.84;;;30.83
49154;BMP280;49455;52.252;9.124;2023-06-10T15:25:25;99699.19;;;30.74
49154;BMP280;49455;52.252;9.124;2023-06-10T15:30:25;99692.13;;;31.04
49154;BMP280;49455;52.252;9.124;2023-06-10T15:35:26;99693.94;;;30.55
49154;BMP280;49455;52.252;9.124;2023-06-10T15:40:26;99685.91;;;30.37
49154;BMP280;49455;52.252;9.124;2023-06-10T15:45:26;99685.00;;;30.80
49154;BMP280;49455;52.252;9.124;2023-06-10T15:50:27;99683.72;;;30.73
49154;BMP280;49455;52.252;9.124;2023-06-10T15:55:27;99677.28;;;30.19
49154;BMP280;49455;52.252;9.124;2023-06-10T16:00:27;99670.69;;;30.76
49154;BMP280;49455;52.252;9.124;2023-06-10T16:05:28;99669.69;;;30.43
49154;BMP280;49455;52.252;9.124;2023-06-10T16:10:28;99673.47;;;31.06
49154;BMP280;49455;52.252;9.124;2023-06-10T16:15:29;99677.00;;;30.92
49154;BMP280;49455;52.252;9.124;2023-06-10T16:20:29;99668.03;;;29.88
49154;BMP280;49455;52.252;9.124;2023-06-10T16:25:30;99664.63;;;30.26
49154;BMP280;49455;52.252;9.124;2023-06-10T16:30:31;99665.91;;;30.25
49154;BMP280;49455;52.252;9.124;2023-06-10T16:35:31;99654.75;;;30.25
49154;BMP280;49455;52.252;9.124;2023-06-10T16:40:32;99661.06;;;30.18
49154;BMP280;49455;52.252;9.124;2023-06-10T16:45:32;99661.63;;;29.73
49154;BMP280;49455;52.252;9.124;2023-06-10T16:50:33;99659.28;;;29.84
49154;BMP280;49455;52.252;9.124;2023-06-10T16:55:33;99673.13;;;29.12
49154;BMP280;49455;52.252;9.124;2023-06-10T17:00:34;99663.88;;;29.46
49154;BMP280;49455;52.252;9.124;2023-06-10T17:05:34;99674.44;;;29.39
49154;BMP280;49455;52.252;9.124;2023-06-10T17:10:34;99679.00;;;29.01
49154;BMP280;49455;52.252;9.124;2023-06-10T17:15:35;99678.91;;;28.93
49154;BMP280;49455;52.252;9.124;2023-06-10T17:20:35;99679.16;;;29.24
49154;BMP280;49455;52.252;9.124;2023-06-10T17:25:36;99696.31;;;29.07
49154;BMP280;49455;52.252;9.124;2023-06-10T17:30:36;99698.72;;;29.03
49154;BMP280;49455;52.252;9.124;2023-06-10T17:35:36;99698.44;;;28.93
49154;BMP280;49455;52.252;9.124;2023-06-10T17:40:37;99695.78;;;28.88
49154;BMP280;49455;52.252;9.124;2023-06-10T17:45:37;99690.66;;;28.57
49154;BMP280;49455;52.252;9.124;2023-06-10T17:50:38;99695.78;;;28.88
49154;BMP280;49455;52.252;9.124;2023-06-10T17:55:38;99691.88;;;28.49
49154;BMP280;49455;52.252;9.124;2023-06-10T18:00:38;99698.66;;;28.27
49154;BMP280;49455;52.252;9.124;2023-06-10T18:05:39;99730.78;;;27.49
49154;BMP280;49455;52.252;9.124;2023-06-10T18:10:40;99717.84;;;26.87
49154;BMP280;49455;52.252;9.124;2023-06-10T18:15:40;99729.69;;;26.06
49154;BMP280;49455;52.252;9.124;2023-06-10T18:20:40;99735.34;;;25.71
49154;BMP280;49455;52.252;9.124;2023-06-10T18:25:41;99743.50;;;25.27
49154;BMP280;49455;52.252;9.124;2023-06-10T18:30:41;99744.69;;;25.02
49154;BMP280;49455;52.252;9.124;2023-06-10T18:35:42;99754.28;;;24.95
49154;BMP280;49455;52.252;9.124;2023-06-10T18:40:42;99744.91;;;24.52
49154;BMP280;49455;52.252;9.124;2023-06-10T18:45:43;99754.00;;;24.35
49154;BMP280;49455;52.252;9.124;2023-06-10T18:50:43;99741.94;;;24.33
49154;BMP280;49455;52.252;9.124;2023-06-10T18:55:43;99748.75;;;24.20
49154;BMP280;49455;52.252;9.124;2023-06-10T19:00:47;99741.72;;;24.14
49154;BMP280;49455;52.252;9.124;2023-06-10T19:05:47;99742.00;;;24.05
49154;BMP280;49455;52.252;9.124;2023-06-10T19:10:50;99748.78;;;23.87
49154;BMP280;49455;52.252;9.124;2023-06-10T19:15:50;99752.06;;;23.80
49154;BMP280;49455;52.252;9.124;2023-06-10T19:20:51;99764.41;;;23.79
49154;BMP280;49455;52.252;9.124;2023-06-10T19:25:51;99760.13;;;23.66
49154;BMP280;49455;52.252;9.124;2023-06-10T19:30:52;99770.66;;;23.46
49154;BMP280;49455;52.252;9.124;2023-06-10T19:35:52;99761.81;;;23.30
49154;BMP280;49455;52.252;9.124;2023-06-10T19:40:52;99760.00;;;23.16
49154;BMP280;49455;52.252;9.124;2023-06-10T19:45:53;99761.75;;;23.02
49154;BMP280;49455;52.252;9.124;2023-06-10T19:50:53;99758.69;;;22.95
49154;BMP280;49455;52.252;9.124;2023-06-10T19:55:53;99768.94;;;22.83
49154;BMP280;49455;52.252;9.124;2023-06-10T20:00:54;99775.19;;;22.78
49154;BMP280;49455;52.252;9.124;2023-06-10T20:05:54;99767.13;;;22.69
49154;BMP280;49455;52.252;9.124;2023-06-10T20:10:55;99764.09;;;22.61
49154;BMP280;49455;52.252;9.124;2023-06-10T20:15:55;99772.81;;;22.54
49154;BMP280;49455;52.252;9.124;2023-06-10T20:20:55;99782.06;;;22.45
49154;BMP280;49455;52.252;9.124;2023-06-10T20:25:56;99781.69;;;22.32
49154;BMP280;49455;52.252;9.124;2023-06-10T20:30:57;99788.69;;;22.27
49154;BMP280;49455;52.252;9.124;2023-06-10T20:35:57;99797.88;;;22.13
49154;BMP280;49455;52.252;9.124;2023-06-10T20:40:57;99800.81;;;22.04
49154;BMP280;49455;52.252;9.124;2023-06-10T20:45:58;99807.53;;;21.97
49154;BMP280;49455;52.252;9.124;2023-06-10T20:50:58;99805.28;;;21.96
49154;BMP280;49455;52.252;9.124;2023-06-10T20:55:58;99811.78;;;21.98
49154;BMP280;49455;52.252;9.124;2023-06-10T21:00:59;99818.22;;;21.90
49154;BMP280;49455;52.252;9.124;2023-06-10T21:05:59;99812.81;;;21.75
49154;BMP280;49455;52.252;9.124;2023-06-10T21:11:00;99821.50;;;21.68
49154;BMP280;49455;52.252;9.124;2023-06-10T21:16:00;99827.00;;;21.62
49154;BMP280;49455;52.252;9.124;2023-06-10T21:21:01;99818.22;;;21.64
49154;BMP280;49455;52.252;9.124;2023-06-10T21:26:01;99823.00;;;21.63
49154;BMP280;49455;52.252;9.124;2023-06-10T21:31:01;99829.47;;;21.60
49154;BMP280;49455;52.252;9.124;2023-06-10T21:36:02;99832.72;;;21.58
49154;BMP280;49455;52.252;9.124;2023-06-10T21:41:03;99835.38;;;21.53
49154;BMP280;49455;52.252;9.124;2023-06-10T21:46:03;99841.69;;;21.53
49154;BMP280;49455;52.252;9.124;2023-06-10T21:51:03;99848.97;;;21.56
49154;BMP280;49455;52.252;9.124;2023-06-10T21:56:04;99844.72;;;21.55
49154;BMP280;49455;52.252;9.124;2023-06-10T22:01:04;99864.69;;;21.50
49154;BMP280;49455;52.252;9.124;2023-06-10T22:06:05;99849.59;;;21.66
49154;BMP280;49455;52.252;9.124;2023-06-10T22:11:06;99852.00;;;21.58
49154;BMP280;49455;52.252;9.124;2023-06-10T22:16:06;99852.16;;;21.49
49154;BMP280;49455;52.252;9.124;2023-06-10T22:21:06;99864.00;;;21.35
49154;BMP280;49455;52.252;9.124;2023-06-10T22:26:07;99862.16;;;21.26
49154;BMP280;49455;52.252;9.124;2023-06-10T22:31:07;99860.97;;;21.13
49154;BMP280;49455;52.252;9.124;2023-06-10T22:36:08;99862.28;;;21.02
49154;BMP280;49455;52.252;9.124;2023-06-10T22:41:11;99869.84;;;20.87
49154;BMP280;49455;52.252;9.124;2023-06-10T22:46:11;99862.41;;;20.73
49154;BMP280;49455;52.252;9.124;2023-06-10T22:51:12;99862.63;;;20.54
49154;BMP280;49455;52.252;9.124;2023-06-10T22:56:12;99867.75;;;20.47
49154;BMP280;49455;52.252;9.124;2023-06-10T23:01:13;99858.81;;;20.37
49154;BMP280;49455;52.252;9.124;2023-06-10T23:06:13;99850.94;;;20.30
49154;BMP280;49455;52.252;9.124;2023-06-10T23:11:13;99851.50;;;20.19
49154;BMP280;49455;52.252;9.124;2023-06-10T23:16:14;99854.00;;;20.17
49154;BMP280;49455;52.252;9.124;2023-06-10T23:21:14;99867.75;;;20.17
49154;BMP280;49455;52.252;9.124;2023-06-10T23:26:15;99868.88;;;20.25
49154;BMP280;49455;52.252;9.124;2023-06-10T23:31:15;99865.63;;;20.27
49154;BMP280;49455;52.252;9.124;2023-06-10T23:36:16;99870.38;;;20.26
49154;BMP280;49455;52.252;9.124;2023-06-10T23:41:16;99866.22;;;20.31
49154;BMP280;49455;52.252;9.124;2023-06-10T23:46:16;99866.41;;;20.42
49154;BMP280;49455;52.252;9.124;2023-06-10T23:51:17;99859.59;;;20.38
49154;BMP280;49455;52.252;9.124;2023-06-10T23:56:17;99856.88;;;20.43
